createdAt,value
2018-02-10T00:01:49.733Z,100831.55
2018-02-10T00:04:15.704Z,100836.64
2018-02-10T00:06:41.666Z,100834.09
2018-02-10T00:09:07.633Z,100843.44
2018-02-10T00:11:33.603Z,100848.30
2018-02-10T00:13:59.533Z,100843.52
2018-02-10T00:16:25.484Z,100851.22
2018-02-10T00:18:51.417Z,100849.76
2018-02-10T00:21:17.360Z,100852.10
2018-02-10T00:23:43.296Z,100853.34
2018-02-10T00:26:09.248Z,100858.08
2018-02-10T00:28:35.197Z,100855.66
2018-02-10T00:31:01.309Z,100852.59
2018-02-10T00:33:27.246Z,100855.82
2018-02-10T00:35:53.192Z,100857.55
2018-02-10T00:38:19.152Z,100855.42
2018-02-10T00:40:45.110Z,100854.72
2018-02-10T00:43:11.069Z,100864.05
2018-02-10T00:45:37.112Z,100863.77
2018-02-10T00:48:03.112Z,100864.03
2018-02-10T00:50:29.069Z,100865.34
2018-02-10T00:52:55.034Z,100867.92
2018-02-10T00:55:20.995Z,100869.06
2018-02-10T00:57:46.941Z,100875.34
2018-02-10T01:00:12.921Z,100875.47
2018-02-10T01:02:38.960Z,100871.52
2018-02-10T01:05:04.888Z,100873.53
2018-02-10T01:07:30.853Z,100872.14
2018-02-10T01:09:56.838Z,100875.27
2018-02-10T01:12:22.786Z,100877.15
2018-02-10T01:14:48.733Z,100873.94
2018-02-10T01:17:14.702Z,100875.73
2018-02-10T01:19:40.662Z,100870.57
2018-02-10T01:22:06.605Z,100878.92
2018-02-10T01:24:32.533Z,100874.73
2018-02-10T01:26:58.478Z,100877.41
2018-02-10T01:29:24.434Z,100885.64
2018-02-10T01:31:50.401Z,100888.80
2018-02-10T01:34:16.345Z,100877.23
2018-02-10T01:36:42.313Z,100884.17
2018-02-10T01:39:08.280Z,100883.59
2018-02-10T01:41:34.193Z,100883.80
2018-02-10T01:44:00.185Z,100880.52
2018-02-10T01:46:26.150Z,100879.80
2018-02-10T01:48:52.109Z,100880.31
2018-02-10T01:51:18.049Z,100880.56
2018-02-10T01:53:44.014Z,100882.41
2018-02-10T01:56:09.953Z,100884.02
2018-02-10T01:58:35.918Z,100875.28
2018-02-10T02:01:01.869Z,100881.08
2018-02-10T02:03:27.821Z,100880.95
2018-02-10T02:05:53.925Z,100879.69
2018-02-10T02:08:19.817Z,100881.31
2018-02-10T02:10:45.836Z,100876.81
2018-02-10T02:13:11.785Z,100880.24
2018-02-10T02:15:37.729Z,100885.68
2018-02-10T02:18:03.683Z,100883.92
2018-02-10T02:20:29.648Z,100884.70
2018-02-10T02:22:55.589Z,100884.98
2018-02-10T02:25:21.585Z,100879.54
2018-02-10T02:27:47.534Z,100882.55
2018-02-10T02:30:13.537Z,100884.52
2018-02-10T02:32:39.512Z,100880.32
2018-02-10T02:35:05.483Z,100881.69
2018-02-10T02:37:31.424Z,100876.15
2018-02-10T02:39:57.429Z,100879.44
2018-02-10T02:42:23.366Z,100878.08
2018-02-10T02:44:49.312Z,100871.55
2018-02-10T02:47:15.346Z,100878.66
2018-02-10T02:49:41.309Z,100872.64
2018-02-10T02:52:07.247Z,100877.47
2018-02-10T02:54:33.194Z,100884.45
2018-02-10T02:56:59.133Z,100888.17
2018-02-10T02:59:25.074Z,100882.55
2018-02-10T03:01:51.035Z,100878.77
2018-02-10T03:04:16.978Z,100880.00
2018-02-10T03:06:42.961Z,100886.08
2018-02-10T03:09:08.961Z,100892.06
2018-02-10T03:11:34.904Z,100887.39
2018-02-10T03:14:00.873Z,100893.07
2018-02-10T03:16:26.869Z,100891.45
2018-02-10T03:18:52.891Z,100895.52
2018-02-10T03:21:18.861Z,100901.71
2018-02-10T03:23:44.812Z,100899.13
2018-02-10T03:26:10.825Z,100900.69
2018-02-10T03:28:36.765Z,100905.80
2018-02-10T03:31:02.750Z,100909.51
2018-02-10T03:33:28.706Z,100913.83
2018-02-10T03:35:54.647Z,100911.58
2018-02-10T03:38:20.604Z,100919.02
2018-02-10T03:40:46.541Z,100923.09
2018-02-10T03:43:12.484Z,100918.97
2018-02-10T03:45:38.473Z,100915.03
2018-02-10T03:48:04.429Z,100917.63
2018-02-10T03:50:30.399Z,100917.48
2018-02-10T03:52:56.381Z,100914.74
2018-02-10T03:55:22.330Z,100915.03
2018-02-10T03:57:48.276Z,100919.22
2018-02-10T04:00:14.214Z,100923.54
2018-02-10T04:02:40.145Z,100928.28
2018-02-10T04:05:06.213Z,100929.67
2018-02-10T04:07:32.170Z,100932.44
2018-02-10T04:09:58.104Z,100936.55
2018-02-10T04:12:24.066Z,100942.60
2018-02-10T04:14:50.029Z,100953.84
2018-02-10T04:17:16.004Z,100956.73
2018-02-10T04:19:41.977Z,100955.80
2018-02-10T04:22:07.977Z,100956.40
2018-02-10T04:24:33.929Z,100950.83
2018-02-10T04:26:59.901Z,100958.61
2018-02-10T04:29:25.842Z,100954.39
2018-02-10T04:31:51.781Z,100961.23
2018-02-10T04:34:17.739Z,100955.60
2018-02-10T04:36:43.776Z,100954.36
2018-02-10T04:39:09.732Z,100967.11
2018-02-10T04:41:35.678Z,100968.72
2018-02-10T04:44:01.657Z,100969.92
2018-02-10T04:46:27.625Z,100972.48
2018-02-10T04:48:53.573Z,100975.34
2018-02-10T04:51:19.505Z,100975.23
2018-02-10T04:53:45.448Z,100978.38
2018-02-10T04:56:11.434Z,100980.03
2018-02-10T04:58:37.468Z,100981.23
2018-02-10T05:01:03.405Z,100985.82
2018-02-10T05:03:29.361Z,100995.27
2018-02-10T05:05:55.306Z,100995.86
2018-02-10T05:08:21.253Z,100992.11
2018-02-10T05:10:47.269Z,100988.90
2018-02-10T05:13:13.212Z,100996.58
2018-02-10T05:15:39.157Z,100996.09
2018-02-10T05:18:05.161Z,100991.42
2018-02-10T05:20:31.126Z,100991.95
2018-02-10T05:22:57.053Z,100990.41
2018-02-10T05:25:23.009Z,100993.20
2018-02-10T05:27:48.948Z,100991.09
2018-02-10T05:30:14.896Z,100991.12
2018-02-10T05:32:40.916Z,100995.38
2018-02-10T05:35:06.892Z,100996.05
2018-02-10T05:37:32.836Z,100993.76
2018-02-10T05:39:58.782Z,100998.87
2018-02-10T05:42:24.690Z,100991.09
2018-02-10T05:44:50.624Z,100987.52
2018-02-10T05:47:16.584Z,100985.03
2018-02-10T05:49:42.578Z,100986.70
2018-02-10T05:52:08.545Z,100984.62
2018-02-10T05:54:34.493Z,100989.13
2018-02-10T05:57:00.440Z,100985.48
2018-02-10T05:59:26.389Z,100983.50
2018-02-10T06:01:52.433Z,100981.09
2018-02-10T06:04:18.390Z,100985.98
2018-02-10T06:06:44.332Z,100995.19
2018-02-10T06:09:10.277Z,100994.66
2018-02-10T06:11:36.219Z,100996.31
2018-02-10T06:14:02.187Z,100989.33
2018-02-10T06:16:28.125Z,100982.98
2018-02-10T06:18:54.073Z,100983.09
2018-02-10T06:21:20.010Z,100980.94
2018-02-10T06:23:45.961Z,100986.50
2018-02-10T06:26:11.901Z,100976.33
2018-02-10T06:28:37.873Z,100975.28
2018-02-10T06:31:03.817Z,100980.08
2018-02-10T06:33:29.778Z,100970.87
2018-02-10T06:35:55.747Z,100974.77
2018-02-10T06:38:21.704Z,100976.27
2018-02-10T06:40:47.652Z,100983.78
2018-02-10T06:43:13.589Z,100983.61
2018-02-10T06:45:39.536Z,100982.24
2018-02-10T06:48:05.500Z,100983.33
2018-02-10T06:50:31.457Z,100980.58
2018-02-10T06:52:57.410Z,100978.59
2018-02-10T06:55:23.396Z,100986.44
2018-02-10T06:57:49.336Z,100988.42
2018-02-10T07:00:15.272Z,100989.15
2018-02-10T07:02:41.230Z,100994.34
2018-02-10T07:05:07.234Z,100988.06
2018-02-10T07:07:33.162Z,100993.75
2018-02-10T07:09:59.123Z,100988.89
2018-02-10T07:12:25.065Z,100989.70
2018-02-10T07:14:51.057Z,100995.79
2018-02-10T07:17:17.012Z,100996.67
2018-02-10T07:19:42.944Z,100991.05
2018-02-10T07:22:08.894Z,100992.23
2018-02-10T07:24:34.853Z,100993.51
2018-02-10T07:27:00.809Z,100991.50
2018-02-10T07:29:26.781Z,100997.25
2018-02-10T07:31:52.746Z,100999.06
2018-02-10T07:34:18.683Z,101009.89
2018-02-10T07:36:44.705Z,101010.89
2018-02-10T07:39:10.708Z,101017.02
2018-02-10T07:41:36.596Z,101019.62
2018-02-10T07:44:02.542Z,101021.74
2018-02-10T07:46:28.552Z,101023.59
2018-02-10T07:48:54.537Z,101026.03
2018-02-10T07:51:20.505Z,101022.16
2018-02-10T07:53:46.469Z,101025.58
2018-02-10T07:56:12.409Z,101022.66
2018-02-10T07:58:38.382Z,101025.16
2018-02-10T08:01:04.335Z,101022.20
2018-02-10T08:03:30.293Z,101034.56
2018-02-10T08:05:56.268Z,101026.67
2018-02-10T08:08:22.223Z,101034.63
2018-02-10T08:10:48.300Z,101035.62
2018-02-10T08:13:14.259Z,101036.64
2018-02-10T08:15:40.205Z,101037.94
2018-02-10T08:18:06.176Z,101037.36
2018-02-10T08:20:32.125Z,101031.02
2018-02-10T08:22:58.089Z,101028.84
2018-02-10T08:25:24.051Z,101028.34
2018-02-10T08:27:50.067Z,101025.53
2018-02-10T08:30:16.011Z,101023.20
2018-02-10T08:32:41.957Z,101028.48
2018-02-10T08:35:07.981Z,101024.00
2018-02-10T08:37:33.954Z,101023.23
2018-02-10T08:39:59.905Z,101018.91
2018-02-10T08:42:25.871Z,101023.63
2018-02-10T08:44:51.881Z,101027.00
2018-02-10T08:47:17.832Z,101034.47
2018-02-10T08:49:43.796Z,101036.16
2018-02-10T08:52:09.737Z,101026.76
2018-02-10T08:54:35.691Z,101025.27
2018-02-10T08:57:01.676Z,101023.37
2018-02-10T08:59:27.630Z,101029.18
2018-02-10T09:01:53.589Z,101024.44
2018-02-10T09:04:19.557Z,101028.49
2018-02-10T09:06:45.509Z,101026.59
2018-02-10T09:09:11.449Z,101035.05
2018-02-10T09:11:37.429Z,101042.39
2018-02-10T09:14:03.378Z,101051.06
2018-02-10T09:16:29.337Z,101046.01
2018-02-10T09:18:55.301Z,101042.44
2018-02-10T09:21:21.277Z,101039.86
2018-02-10T09:23:47.218Z,101046.28
2018-02-10T09:26:13.237Z,101048.83
2018-02-10T09:28:39.252Z,101053.66
2018-02-10T09:31:05.200Z,101051.00
2018-02-10T09:33:31.145Z,101045.99
2018-02-10T09:35:57.141Z,101046.23
2018-02-10T09:38:23.092Z,101042.62
2018-02-10T09:40:49.069Z,101044.78
2018-02-10T09:43:15.022Z,101053.30
2018-02-10T09:45:40.985Z,101056.81
2018-02-10T09:48:06.925Z,101057.22
2018-02-10T09:50:32.873Z,101052.30
2018-02-10T09:52:58.857Z,101053.20
2018-02-10T09:55:24.797Z,101052.42
2018-02-10T09:57:50.776Z,101055.13
2018-02-10T10:00:16.755Z,101052.78
2018-02-10T10:02:42.724Z,101058.42
2018-02-10T10:05:08.668Z,101058.91
2018-02-10T10:07:34.614Z,101057.06
2018-02-10T10:10:00.567Z,101062.86
2018-02-10T10:12:26.509Z,101067.77
2018-02-10T10:14:52.461Z,101068.87
2018-02-10T10:17:18.410Z,101065.73
2018-02-10T10:19:44.356Z,101073.28
2018-02-10T10:22:10.324Z,101067.21
2018-02-10T10:24:36.265Z,101076.50
2018-02-10T10:27:02.228Z,101071.70
2018-02-10T10:29:28.255Z,101074.45
2018-02-10T10:31:54.214Z,101074.87
2018-02-10T10:34:20.145Z,101083.73
2018-02-10T10:36:46.176Z,101077.50
2018-02-10T10:39:12.119Z,101082.16
2018-02-10T10:41:38.065Z,101075.14
2018-02-10T10:44:04.044Z,101077.30
2018-02-10T10:46:30.016Z,101070.77
2018-02-10T10:48:56.092Z,101074.98
2018-02-10T10:51:22.045Z,101063.68
2018-02-10T10:53:48.129Z,101076.77
2018-02-10T10:56:14.092Z,101071.19
2018-02-10T10:58:40.041Z,101066.06
2018-02-10T11:01:06.079Z,101062.52
2018-02-10T11:03:32.075Z,101053.90
2018-02-10T11:05:58.002Z,101057.40
2018-02-10T11:08:23.951Z,101049.61
2018-02-10T11:10:49.904Z,101044.02
2018-02-10T11:13:15.853Z,101041.74
2018-02-10T11:15:41.825Z,101040.87
2018-02-10T11:18:07.812Z,101047.71
2018-02-10T11:20:34.094Z,101051.74
2018-02-10T11:23:00.045Z,101054.07
2018-02-10T11:25:26.002Z,101049.77
2018-02-10T11:27:51.949Z,101048.80
2018-02-10T11:30:17.910Z,101046.07
2018-02-10T11:32:43.968Z,101048.35
2018-02-10T11:35:09.917Z,101049.58
2018-02-10T11:37:35.882Z,101050.50
2018-02-10T11:40:01.844Z,101053.75
2018-02-10T11:42:27.822Z,101053.92
2018-02-10T11:44:53.765Z,101056.02
2018-02-10T11:47:19.891Z,101050.00
2018-02-10T11:49:45.842Z,101054.08
2018-02-10T11:52:11.786Z,101048.35
2018-02-10T11:54:37.741Z,101050.56
2018-02-10T11:57:03.706Z,101044.80
2018-02-10T11:59:29.705Z,101045.11
2018-02-10T12:01:55.676Z,101040.31
2018-02-10T12:04:21.662Z,101041.78
2018-02-10T12:06:47.690Z,101039.80
2018-02-10T12:09:13.710Z,101036.99
2018-02-10T12:11:39.662Z,101038.76
2018-02-10T12:14:05.620Z,101036.77
2018-02-10T12:16:31.588Z,101040.19
2018-02-10T12:18:57.543Z,101037.80
2018-02-10T12:21:23.506Z,101033.34
2018-02-10T12:23:49.453Z,101033.30
2018-02-10T12:26:15.420Z,101038.56
2018-02-10T12:28:41.369Z,101030.83
2018-02-10T12:31:07.342Z,101027.72
2018-02-10T12:33:33.344Z,101031.91
2018-02-10T12:35:59.313Z,101027.83
2018-02-10T12:38:25.261Z,101024.78
2018-02-10T12:40:51.213Z,101019.32
2018-02-10T12:43:17.180Z,101022.98
2018-02-10T12:45:43.132Z,101025.77
2018-02-10T12:48:09.079Z,101030.68
2018-02-10T12:50:35.034Z,101020.39
2018-02-10T12:53:01.003Z,101021.30
2018-02-10T12:55:26.937Z,101021.97
2018-02-10T12:57:52.895Z,101014.35
2018-02-10T13:00:18.873Z,101013.98
2018-02-10T13:02:44.819Z,101014.54
2018-02-10T13:05:10.774Z,101004.50
2018-02-10T13:07:36.733Z,101010.45
2018-02-10T13:10:02.698Z,101012.41
2018-02-10T13:12:28.677Z,101012.82
2018-02-10T13:14:54.627Z,101011.84
2018-02-10T13:17:20.573Z,101007.27
2018-02-10T13:19:46.629Z,101003.80
2018-02-10T13:22:12.560Z,101009.78
2018-02-10T13:24:38.525Z,101012.58
2018-02-10T13:27:04.469Z,101002.59
2018-02-10T13:29:30.517Z,100998.14
2018-02-10T13:31:56.469Z,100994.95
2018-02-10T13:34:22.416Z,100995.18
2018-02-10T13:36:48.381Z,100987.67
2018-02-10T13:39:14.343Z,100986.03
2018-02-10T13:41:40.289Z,100981.17
2018-02-10T13:44:06.261Z,100988.72
2018-02-10T13:46:32.196Z,100977.02
2018-02-10T13:48:58.136Z,100985.59
2018-02-10T13:51:24.113Z,100983.85
2018-02-10T13:53:50.075Z,100980.07
2018-02-10T13:56:16.044Z,100987.85
2018-02-10T13:58:42.007Z,100985.57
2018-02-10T14:01:07.954Z,100979.63
2018-02-10T14:03:33.913Z,100983.59
2018-02-10T14:05:59.925Z,100976.16
2018-02-10T14:08:25.884Z,100980.65
2018-02-10T14:10:51.865Z,100978.20
2018-02-10T14:13:17.803Z,100982.11
2018-02-10T14:15:43.780Z,100973.39
2018-02-10T14:18:09.718Z,100977.00
2018-02-10T14:20:35.698Z,100974.14
2018-02-10T14:23:01.693Z,100969.58
2018-02-10T14:25:27.647Z,100967.47
2018-02-10T14:27:53.620Z,100967.76
2018-02-10T14:30:19.596Z,100969.41
2018-02-10T14:32:45.562Z,100968.23
2018-02-10T14:35:11.518Z,100972.25
2018-02-10T14:37:37.465Z,100979.14
2018-02-10T14:40:03.405Z,100974.38
2018-02-10T14:42:29.362Z,100977.13
2018-02-10T14:44:55.324Z,100967.75
2018-02-10T14:47:21.294Z,100972.82
2018-02-10T14:49:47.270Z,100971.02
2018-02-10T14:52:13.276Z,100970.53
2018-02-10T14:54:39.233Z,100971.44
2018-02-10T14:57:05.173Z,100967.22
2018-02-10T14:59:31.117Z,100970.98
2018-02-10T15:01:57.102Z,100968.33
2018-02-10T15:04:23.086Z,100972.84
2018-02-10T15:06:49.050Z,100970.91
2018-02-10T15:09:15.007Z,100970.77
2018-02-10T15:11:40.960Z,100972.89
2018-02-10T15:14:06.935Z,100973.75
2018-02-10T15:16:32.877Z,100983.72
2018-02-10T15:18:58.817Z,100975.61
2018-02-10T15:21:24.777Z,100972.14
2018-02-10T15:23:50.773Z,100979.50
2018-02-10T15:26:16.735Z,100976.80
2018-02-10T15:28:42.695Z,100971.05
2018-02-10T15:31:08.642Z,100970.92
2018-02-10T15:33:34.597Z,100971.67
2018-02-10T15:36:00.537Z,100971.59
2018-02-10T15:38:26.514Z,100970.43
2018-02-10T15:40:52.526Z,100964.47
2018-02-10T15:43:18.474Z,100975.96
2018-02-10T15:45:44.439Z,100974.88
2018-02-10T15:48:10.390Z,100977.52
2018-02-10T15:50:36.360Z,100975.81
2018-02-10T15:53:02.290Z,100972.91
2018-02-10T15:55:28.251Z,100966.89
2018-02-10T15:57:54.230Z,100966.72
2018-02-10T16:00:20.173Z,100962.94
2018-02-10T16:02:46.156Z,100963.47
2018-02-10T16:05:12.093Z,100955.00
2018-02-10T16:07:38.109Z,100953.97
2018-02-10T16:10:04.130Z,100957.34
2018-02-10T16:12:30.081Z,100953.88
2018-02-10T16:14:56.033Z,100950.05
2018-02-10T16:17:22.037Z,100947.43
2018-02-10T16:19:48.019Z,100950.48
2018-02-10T16:22:14.086Z,100942.36
2018-02-10T16:24:40.122Z,100944.95
2018-02-10T16:27:06.067Z,100948.50
2018-02-10T16:29:32.069Z,100951.38
2018-02-10T16:31:58.053Z,100947.70
2018-02-10T16:34:23.994Z,100946.95
2018-02-10T16:36:50.013Z,100941.90
2018-02-10T16:39:15.965Z,100942.52
2018-02-10T16:41:41.960Z,100935.36
2018-02-10T16:44:07.901Z,100936.17
2018-02-10T16:46:33.885Z,100940.82
2018-02-10T16:48:59.824Z,100935.34
2018-02-10T16:51:25.817Z,100938.06
2018-02-10T16:53:51.838Z,100931.61
2018-02-10T16:56:17.790Z,100936.62
2018-02-10T16:58:43.787Z,100939.59
2018-02-10T17:01:09.813Z,100941.91
2018-02-10T17:03:35.785Z,100944.11
2018-02-10T17:06:01.734Z,100945.87
2018-02-10T17:08:27.682Z,100945.50
2018-02-10T17:10:53.624Z,100945.64
2018-02-10T17:13:19.619Z,100937.73
2018-02-10T17:15:45.579Z,100938.42
2018-02-10T17:18:11.546Z,100936.78
2018-02-10T17:20:37.492Z,100932.45
2018-02-10T17:23:03.465Z,100936.19
2018-02-10T17:25:29.429Z,100926.15
2018-02-10T17:27:55.374Z,100925.23
2018-02-10T17:30:21.357Z,100926.09
2018-02-10T17:32:47.377Z,100926.92
2018-02-10T17:35:13.332Z,100931.09
2018-02-10T17:37:39.286Z,100931.00
2018-02-10T17:40:05.245Z,100921.66
2018-02-10T17:42:31.225Z,100921.78
2018-02-10T17:44:57.202Z,100928.28
2018-02-10T17:47:23.160Z,100928.16
2018-02-10T17:49:49.193Z,100921.16
2018-02-10T17:52:15.294Z,100919.02
2018-02-10T17:54:41.248Z,100923.09
2018-02-10T17:57:07.197Z,100929.19
2018-02-10T17:59:33.198Z,100925.94
2018-02-10T18:01:59.229Z,100925.23
2018-02-10T18:04:25.219Z,100923.50
2018-02-10T18:06:51.188Z,100926.22
2018-02-10T18:09:17.165Z,100926.34
2018-02-10T18:11:43.112Z,100926.09
2018-02-10T18:14:09.093Z,100926.62
2018-02-10T18:16:35.026Z,100912.13
2018-02-10T18:19:00.980Z,100918.64
2018-02-10T18:21:26.945Z,100911.92
2018-02-10T18:23:52.887Z,100913.31
2018-02-10T18:26:18.845Z,100910.26
2018-02-10T18:28:44.784Z,100901.56
2018-02-10T18:31:10.732Z,100902.61
2018-02-10T18:33:36.782Z,100899.64
2018-02-10T18:36:02.708Z,100891.93
2018-02-10T18:38:28.693Z,100881.11
2018-02-10T18:40:54.618Z,100879.03
2018-02-10T18:43:20.553Z,100877.56
2018-02-10T18:45:46.518Z,100874.81
2018-02-10T18:48:12.565Z,100867.59
2018-02-10T18:50:38.505Z,100866.61
2018-02-10T18:53:04.699Z,100862.53
2018-02-10T18:55:30.643Z,100867.44
2018-02-10T18:57:56.599Z,100868.55
2018-02-10T19:00:22.571Z,100863.48
2018-02-10T19:02:48.525Z,100857.80
2018-02-10T19:05:14.537Z,100853.59
2018-02-10T19:07:40.478Z,100848.73
2018-02-10T19:10:06.433Z,100846.80
2018-02-10T19:12:32.400Z,100842.67
2018-02-10T19:14:58.336Z,100840.61
2018-02-10T19:17:24.348Z,100830.13
2018-02-10T19:19:50.406Z,100827.69
2018-02-10T19:22:16.371Z,100823.28
2018-02-10T19:24:42.318Z,100827.36
2018-02-10T19:27:08.261Z,100824.93
2018-02-10T19:29:34.222Z,100830.53
2018-02-10T19:32:00.179Z,100828.19
2018-02-10T19:34:26.194Z,100813.97
2018-02-10T19:36:52.133Z,100807.26
2018-02-10T19:39:18.157Z,100808.91
2018-02-10T19:41:44.116Z,100805.58
2018-02-10T19:44:10.165Z,100810.77
2018-02-10T19:46:36.118Z,100803.36
2018-02-10T19:49:02.091Z,100795.66
2018-02-10T19:51:28.029Z,100794.49
2018-02-10T19:53:54.090Z,100789.27
2018-02-10T19:56:20.046Z,100787.05
2018-02-10T19:58:46.040Z,100784.41
2018-02-10T20:01:11.982Z,100774.52
2018-02-10T20:03:38.028Z,100771.89
2018-02-10T20:06:04.080Z,100768.81
2018-02-10T20:08:30.088Z,100772.63
2018-02-10T20:10:56.230Z,100774.73
2018-02-10T20:13:22.197Z,100779.30
2018-02-10T20:15:48.282Z,100775.67
2018-02-10T20:18:14.277Z,100770.89
2018-02-10T20:20:40.270Z,100764.44
2018-02-10T20:23:06.244Z,100760.27
2018-02-10T20:25:32.210Z,100754.75
2018-02-10T20:27:58.153Z,100752.05
2018-02-10T20:30:24.237Z,100742.90
2018-02-10T20:32:50.161Z,100745.78
2018-02-10T20:35:16.126Z,100746.16
2018-02-10T20:37:42.089Z,100747.27
2018-02-10T20:40:08.042Z,100750.10
2018-02-10T20:42:34.010Z,100753.70
2018-02-10T20:44:59.999Z,100751.42
2018-02-10T20:47:25.973Z,100750.23
2018-02-10T20:49:51.919Z,100756.00
2018-02-10T20:52:18.099Z,100747.19
2018-02-10T20:54:44.065Z,100743.52
2018-02-10T20:57:10.022Z,100742.95
2018-02-10T20:59:35.993Z,100741.00
2018-02-10T21:02:02.057Z,100739.05
2018-02-10T21:04:28.032Z,100741.98
2018-02-10T21:06:53.976Z,100740.78
2018-02-10T21:09:19.938Z,100745.56
2018-02-10T21:11:45.957Z,100740.47
2018-02-10T21:14:11.926Z,100733.46
2018-02-10T21:16:38.177Z,100728.73
2018-02-10T21:19:04.140Z,100718.13
2018-02-10T21:21:30.097Z,100705.44
2018-02-10T21:23:56.161Z,100696.71
2018-02-10T21:26:22.122Z,100693.51
2018-02-10T21:28:49.017Z,100685.61
2018-02-10T21:31:14.949Z,100690.34
2018-02-10T21:33:40.921Z,100684.43
2018-02-10T21:36:06.877Z,100685.89
2018-02-10T21:38:32.829Z,100688.14
2018-02-10T21:40:58.801Z,100688.60
2018-02-10T21:43:24.759Z,100690.52
2018-02-10T21:45:50.696Z,100681.38
2018-02-10T21:48:16.651Z,100668.91
2018-02-10T21:50:42.597Z,100675.02
2018-02-10T21:53:08.577Z,100665.95
2018-02-10T21:55:34.489Z,100668.78
2018-02-10T21:58:00.975Z,100661.31
2018-02-10T22:00:26.992Z,100652.44
2018-02-10T22:02:52.948Z,100648.78
2018-02-10T22:05:18.910Z,100644.95
2018-02-10T22:07:44.841Z,100626.75
2018-02-10T22:10:10.798Z,100626.38
2018-02-10T22:12:36.772Z,100617.73
2018-02-10T22:15:02.741Z,100613.69
2018-02-10T22:17:28.693Z,100611.81
2018-02-10T22:19:54.645Z,100597.83
2018-02-10T22:22:20.598Z,100595.44
2018-02-10T22:24:46.550Z,100586.75
2018-02-10T22:27:12.553Z,100577.76
2018-02-10T22:29:38.519Z,100575.92
2018-02-10T22:32:04.549Z,100580.65
2018-02-10T22:34:30.575Z,100570.72
2018-02-10T22:36:56.508Z,100565.31
2018-02-10T22:39:22.547Z,100559.88
2018-02-10T22:41:48.530Z,100558.61
2018-02-10T22:44:14.462Z,100550.75
2018-02-10T22:46:40.420Z,100550.77
2018-02-10T22:49:06.441Z,100538.61
2018-02-10T22:51:32.470Z,100528.44
2018-02-10T22:53:58.413Z,100527.10
2018-02-10T22:56:24.383Z,100528.99
2018-02-10T22:58:50.356Z,100521.97
2018-02-10T23:01:16.291Z,100520.89
2018-02-10T23:03:42.278Z,100522.60
2018-02-10T23:06:08.235Z,100511.72
2018-02-10T23:08:34.210Z,100508.16
2018-02-10T23:11:00.161Z,100499.13
2018-02-10T23:13:26.156Z,100496.91
2018-02-10T23:15:52.093Z,100499.08
2018-02-10T23:18:18.078Z,100487.25
2018-02-10T23:20:44.076Z,100485.66
2018-02-10T23:23:10.017Z,100470.69
2018-02-10T23:25:35.995Z,100463.69
2018-02-10T23:28:01.953Z,100457.98
2018-02-10T23:30:27.918Z,100461.34
2018-02-10T23:32:53.941Z,100443.50
2018-02-10T23:35:20.119Z,100450.71
2018-02-10T23:37:46.080Z,100439.41
2018-02-10T23:40:12.097Z,100434.91
2018-02-10T23:42:38.056Z,100431.58
2018-02-10T23:45:04.002Z,100422.61
2018-02-10T23:47:29.963Z,100421.59
2018-02-10T23:49:55.902Z,100416.78
2018-02-10T23:52:21.844Z,100411.80
2018-02-10T23:54:47.795Z,100405.79
2018-02-10T23:57:13.903Z,100407.35
2018-02-10T23:59:39.870Z,100399.81
